Smithville, Ohio
Current Conditions -  °F | °C
As of 2:56 PM on Monday 26 Jan 2015 (Local Time) from KBJJ Reporting Station
Overcast Overcast  
Wind Chill:   Ceiling: 1100
Heat Index: 21°   Visibility: 10mi
Dew Point: 16°   Wind: 18mph
Humidity: 81%   Direction: 360°N
Pressure: 29.8"   Gusts: NA
Location:  40.86°N, 81.86°W
Report Text: KBJJ 261956Z AUTO 36016KT 10SM OVC011 M06/M09 A2980 RMK AO2 SLP108 T10611089 TSNO
Loading
Personal Weather Stations






























Interactive Weather Map New forecast layout! Learn more

10-Day Weather Forecast

Advertisements
Track Severe Weather on mobile